Tuesday, April 24, 2018, 8:53 PM EDT
Back to Local

KBHB, Bar Harbor, Hancock County-bar Harbor Airport

Location: Ellsworth, ME, United States Lat: 44.45
Local Time: 8:53 PM EDT ( 0:53 GMT) Lon: -68.367
Time Zone: US/Eastern Elev: 82 ft

Show me the last for .
Show Decoded

2018-04-24 19:56 METAR KBHB 242356Z AUTO 20010KT 10SM CLR 07/04 A3025 RMK AO2 SLP249 T00720039
                 10139 20072 401440033 55005 $ =
2018-04-24 18:56 METAR KBHB 242256Z AUTO 20012KT 10SM CLR 09/03 A3025 RMK AO2 SLP248 T00890033 $
                 =
2018-04-24 17:56 METAR KBHB 242156Z AUTO 19013KT 10SM CLR 10/03 A3026 RMK AO2 SLP251 T01000033 $
                 =
2018-04-24 16:56 METAR KBHB 242056Z AUTO 19016KT 10SM CLR 11/04 A3027 RMK AO2 SLP254 T01110039
                 55003 $ =
2018-04-24 15:56 METAR KBHB 241956Z AUTO 19018KT 10SM CLR 11/03 A3026 RMK AO2 SLP252 T01060033 $
                 =
2018-04-24 14:56 METAR KBHB 241856Z AUTO 20018KT 10SM CLR 11/03 A3027 RMK AO2 SLP256 T01110028 $
                 =
2018-04-24 13:56 METAR KBHB 241756Z AUTO 20018G22KT 10SM CLR 14/01 A3028 RMK AO2 SLP258 T01390011
                 10144 20083 58019 $ =
2018-04-24 12:56 METAR KBHB 241656Z AUTO 20014KT 10SM CLR 13/02 A3029 RMK AO2 SLP261 T01330022 $
                 =
2018-04-24 11:56 METAR KBHB 241556Z AUTO 21012KT 10SM CLR 12/03 A3032 RMK AO2 SLP273 T01170028 $
                 =
2018-04-24 10:56 METAR KBHB 241456Z AUTO 21014KT 10SM CLR 12/03 A3033 RMK AO2 SLP276 T01170028
                 58005 $ =
2018-04-24 09:56 METAR KBHB 241356Z AUTO 19011KT 10SM CLR 11/02 A3034 RMK AO2 SLP279 T01110022 $
                 =
2018-04-24 08:56 METAR KBHB 241256Z AUTO 21011KT 10SM CLR 10/02 A3034 RMK AO2 SLP280 T01000022 $
                 =
2018-04-24 07:56 METAR KBHB 241156Z AUTO 21013KT 10SM CLR 08/01 A3035 RMK AO2 SLP281 T00830011
                 10083 20033 56004 $ =
2018-04-24 06:56 METAR KBHB 241056Z AUTO 20010KT 10SM CLR 07/02 A3035 RMK AO2 SLP283 T00670022 $
                 =
2018-04-24 05:56 METAR KBHB 240956Z AUTO 20009KT 10SM CLR 04/02 A3035 RMK AO2 SLP283 T00440017 $
                 =
2018-04-24 04:56 METAR KBHB 240856Z AUTO 21007KT 10SM CLR 04/01 A3036 RMK AO2 SLP285 T00440011
                 55007 $ =
2018-04-24 03:56 METAR KBHB 240756Z AUTO 21008KT 10SM CLR 04/01 A3036 RMK AO2 SLP284 T00440011 $
                 =
2018-04-24 02:56 METAR KBHB 240656Z AUTO 21008KT 10SM CLR 04/01 A3037 RMK AO2 SLP288 T00440011 $
                 =
2018-04-24 01:56 METAR KBHB 240556Z AUTO 20004KT 10SM CLR 04/00 A3038 RMK AO2 SLP292 T00440000
                 10067 20039 58006 $ =
2018-04-24 00:56 METAR KBHB 240456Z AUTO 21006KT 10SM CLR 04/M01 A3040 RMK AO2 SLP298 T00441006 $
                 =
2018-04-23 23:56 METAR KBHB 240356Z AUTO 20005KT 10SM CLR 04/M01 A3040 RMK AO2 SLP300 T00441006 $
                 =
2018-04-23 22:56 METAR KBHB 240256Z AUTO 20008KT 10SM CLR 04/M01 A3040 RMK AO2 SLP298 T00441011
                 50005 $ =
2018-04-23 21:56 METAR KBHB 240156Z AUTO 21007KT 10SM CLR 06/M01 A3041 RMK AO2 SLP301 T00561006 $
                 =
2018-04-23 20:56 METAR KBHB 240056Z AUTO 20006KT 10SM CLR 06/M01 A3040 RMK AO2 SLP299 T00561006 $
                 =

Support USWX by starting your Amazon purchase here.